createdAt,value
2019-05-29T00:00:02.689Z,17.90
2019-05-29T00:02:10.478Z,15.90
2019-05-29T00:04:18.453Z,17.92
2019-05-29T00:06:25.147Z,15.50
2019-05-29T00:08:32.452Z,14.68
2019-05-29T00:10:38.990Z,15.08
2019-05-29T00:12:45.414Z,15.65
2019-05-29T00:14:53.407Z,14.70
2019-05-29T00:16:59.986Z,16.73
2019-05-29T00:19:07.006Z,15.23
2019-05-29T00:21:14.707Z,16.00
2019-05-29T00:23:21.367Z,12.53
2019-05-29T00:25:27.897Z,15.50
2019-05-29T00:27:34.375Z,16.12
2019-05-29T00:29:40.842Z,16.37
2019-05-29T00:31:47.311Z,14.28
2019-05-29T00:33:53.921Z,15.08
2019-05-29T00:36:00.422Z,13.40
2019-05-29T00:38:06.829Z,14.33
2019-05-29T00:40:15.073Z,15.32
2019-05-29T00:42:22.730Z,14.28
2019-05-29T00:44:34.210Z,14.80
2019-05-29T00:46:37.382Z,18.98
2019-05-29T00:48:43.838Z,14.95
2019-05-29T00:50:50.254Z,14.83
2019-05-29T00:52:56.652Z,15.23
2019-05-29T00:55:06.519Z,14.30
2019-05-29T00:57:13.023Z,12.43
2019-05-29T00:59:19.537Z,14.23
2019-05-29T01:01:26.067Z,14.45
2019-05-29T01:03:32.486Z,13.00
2019-05-29T01:05:38.895Z,13.08
2019-05-29T01:07:45.363Z,13.20
2019-05-29T01:09:53.318Z,12.13
2019-05-29T01:11:59.779Z,15.47
2019-05-29T01:14:06.508Z,14.15
2019-05-29T01:16:13.323Z,15.23
2019-05-29T01:18:20.061Z,14.50
2019-05-29T01:20:26.529Z,11.85
2019-05-29T01:22:32.996Z,15.68
2019-05-29T01:24:39.464Z,14.78
2019-05-29T01:26:45.899Z,14.83
2019-05-29T01:28:52.282Z,11.00
2019-05-29T01:30:58.681Z,14.83
2019-05-29T01:33:05.247Z,19.10
2019-05-29T01:35:13.752Z,18.85
2019-05-29T01:37:20.375Z,17.07
2019-05-29T01:39:27.737Z,11.83
2019-05-29T01:41:34.388Z,12.20
2019-05-29T01:43:40.784Z,13.30
2019-05-29T01:45:47.394Z,12.28
2019-05-29T01:47:53.892Z,20.55
2019-05-29T01:50:00.408Z,18.55
2019-05-29T01:52:07.245Z,14.83
2019-05-29T01:54:13.790Z,16.05
2019-05-29T01:56:20.269Z,24.60
2019-05-29T01:58:28.014Z,20.68
2019-05-29T02:00:34.689Z,18.47
2019-05-29T02:02:41.086Z,17.10
2019-05-29T02:04:47.583Z,15.68
2019-05-29T02:06:54.126Z,15.55
2019-05-29T02:09:00.534Z,15.32
2019-05-29T02:11:08.684Z,12.63
2019-05-29T02:13:15.266Z,14.43
2019-05-29T02:15:31.696Z,14.25
2019-05-29T02:17:31.775Z,12.93
2019-05-29T02:19:38.187Z,13.53
2019-05-29T02:21:44.678Z,12.98
2019-05-29T02:23:51.313Z,13.10
2019-05-29T02:25:57.714Z,11.60
2019-05-29T02:28:04.213Z,14.70
2019-05-29T02:30:13.097Z,10.97
2019-05-29T02:32:19.706Z,13.00
2019-05-29T02:34:27.860Z,14.68
2019-05-29T02:36:34.388Z,14.45
2019-05-29T02:38:40.897Z,14.00
2019-05-29T02:40:47.313Z,10.68
2019-05-29T02:42:53.955Z,12.80
2019-05-29T02:45:00.571Z,11.73
2019-05-29T02:47:07.101Z,11.68
2019-05-29T02:49:13.679Z,11.95
2019-05-29T02:51:21.942Z,10.18
2019-05-29T02:53:30.809Z,9.05
2019-05-29T02:55:37.538Z,10.13
2019-05-29T02:57:43.998Z,10.23
2019-05-29T02:59:50.467Z,15.38
2019-05-29T03:01:57.000Z,10.18
2019-05-29T03:04:03.548Z,12.25
2019-05-29T03:06:10.159Z,11.60
2019-05-29T03:08:16.786Z,11.18
2019-05-29T03:10:24.790Z,14.33
2019-05-29T03:12:33.501Z,16.57
2019-05-29T03:14:39.826Z,13.98
2019-05-29T03:16:46.206Z,11.22
2019-05-29T03:18:52.617Z,10.78
2019-05-29T03:20:59.013Z,11.63
2019-05-29T03:23:05.608Z,12.25
2019-05-29T03:25:12.246Z,11.25
2019-05-29T03:27:19.709Z,11.25
2019-05-29T03:29:27.984Z,11.75
2019-05-29T03:31:39.716Z,13.83
2019-05-29T03:33:49.019Z,15.38
2019-05-29T03:35:50.481Z,12.97
2019-05-29T03:37:58.973Z,13.55
2019-05-29T03:40:07.985Z,17.87
2019-05-29T03:42:14.511Z,14.43
2019-05-29T03:44:20.928Z,24.20
2019-05-29T03:46:34.374Z,34.15
2019-05-29T03:48:35.531Z,37.87
2019-05-29T03:50:42.497Z,18.50
2019-05-29T03:52:49.073Z,16.97
2019-05-29T03:54:55.477Z,16.55
2019-05-29T03:57:02.028Z,17.02
2019-05-29T03:59:08.501Z,27.77
2019-05-29T04:01:14.980Z,17.17
2019-05-29T04:03:22.982Z,13.60
2019-05-29T04:05:30.800Z,10.07
2019-05-29T04:07:38.271Z,7.33
2019-05-29T04:09:45.121Z,11.00
2019-05-29T04:11:52.465Z,8.28
2019-05-29T04:13:59.400Z,6.03
2019-05-29T04:16:07.700Z,4.97
2019-05-29T04:18:19.646Z,3.77
2019-05-29T04:20:29.559Z,5.12
2019-05-29T04:22:43.046Z,4.10
2019-05-29T04:24:52.949Z,3.55
2019-05-29T04:27:04.318Z,2.80
2019-05-29T04:29:12.155Z,3.47
2019-05-29T04:31:18.634Z,5.45
2019-05-29T04:33:25.039Z,5.00
2019-05-29T04:35:32.665Z,3.75
2019-05-29T04:37:40.642Z,4.67
2019-05-29T04:39:47.220Z,4.78
2019-05-29T04:41:53.596Z,5.47
2019-05-29T04:44:00.017Z,3.33
2019-05-29T04:46:06.421Z,4.15
2019-05-29T04:48:12.843Z,5.17
2019-05-29T04:50:19.358Z,3.92
2019-05-29T04:52:25.966Z,4.28
2019-05-29T04:54:33.388Z,6.70
2019-05-29T04:56:40.128Z,4.08
2019-05-29T04:58:47.571Z,7.42
2019-05-29T05:00:59.281Z,7.25
2019-05-29T05:03:02.087Z,6.20
2019-05-29T05:05:11.748Z,5.45
2019-05-29T05:07:18.233Z,3.47
2019-05-29T05:09:24.627Z,3.55
2019-05-29T05:11:31.361Z,6.20
2019-05-29T05:13:37.824Z,4.80
2019-05-29T05:15:46.904Z,3.67
2019-05-29T05:17:54.117Z,2.83
2019-05-29T05:20:00.662Z,2.80
2019-05-29T05:22:07.229Z,4.25
2019-05-29T05:24:13.776Z,4.78
2019-05-29T05:26:20.427Z,5.60
2019-05-29T05:28:27.999Z,3.60
2019-05-29T05:30:34.570Z,5.47
2019-05-29T05:32:41.711Z,6.62
2019-05-29T05:34:48.214Z,14.03
2019-05-29T05:36:57.480Z,14.85
2019-05-29T05:39:05.641Z,5.05
2019-05-29T05:41:12.860Z,4.43
2019-05-29T05:43:24.001Z,11.48
2019-05-29T05:45:28.763Z,6.62
2019-05-29T05:47:50.065Z,3.62
2019-05-29T05:49:44.860Z,7.33
2019-05-29T05:51:52.110Z,7.97
2019-05-29T05:53:58.569Z,4.78
2019-05-29T05:56:05.303Z,4.25
2019-05-29T05:58:12.413Z,2.87
2019-05-29T06:00:33.973Z,2.22
2019-05-29T06:02:42.018Z,3.60
2019-05-29T06:04:48.613Z,2.25
2019-05-29T06:06:55.141Z,1.62
2019-05-29T06:09:03.575Z,1.00
2019-05-29T06:11:11.864Z,2.75
2019-05-29T06:13:18.358Z,2.87
2019-05-29T06:15:25.506Z,3.95
2019-05-29T06:17:32.357Z,2.15
2019-05-29T06:19:39.084Z,3.55
2019-05-29T06:21:45.455Z,2.50
2019-05-29T06:23:51.920Z,2.02
2019-05-29T06:26:01.404Z,3.87
2019-05-29T06:28:07.934Z,2.40
2019-05-29T06:30:15.279Z,3.60
2019-05-29T06:32:23.173Z,5.03
2019-05-29T06:34:30.724Z,2.83
2019-05-29T06:36:37.957Z,5.58
2019-05-29T06:38:44.670Z,4.72
2019-05-29T06:40:52.330Z,4.15
2019-05-29T06:42:58.982Z,3.30
2019-05-29T06:45:08.736Z,4.53
2019-05-29T06:47:15.557Z,5.97
2019-05-29T06:49:23.030Z,2.62
2019-05-29T06:51:29.408Z,3.95
2019-05-29T06:53:35.876Z,3.52
2019-05-29T06:55:42.731Z,3.75
2019-05-29T06:57:50.610Z,2.37
2019-05-29T06:59:57.008Z,4.83
2019-05-29T07:02:04.270Z,3.70
2019-05-29T07:04:12.484Z,3.42
2019-05-29T07:06:18.973Z,12.97
2019-05-29T07:08:38.325Z,11.28
2019-05-29T07:10:34.168Z,2.67
2019-05-29T07:12:40.544Z,7.67
2019-05-29T07:14:47.002Z,4.58
2019-05-29T07:16:56.126Z,5.08
2019-05-29T07:19:24.813Z,4.07
2019-05-29T07:21:09.845Z,5.87
2019-05-29T07:23:16.312Z,3.15
2019-05-29T07:25:22.723Z,2.37
2019-05-29T07:27:31.648Z,4.35
2019-05-29T07:29:39.005Z,3.62
2019-05-29T07:31:45.646Z,3.80
2019-05-29T07:33:52.071Z,4.60
2019-05-29T07:35:58.471Z,3.85
2019-05-29T07:38:05.023Z,3.20
2019-05-29T07:40:11.849Z,4.97
2019-05-29T07:42:18.294Z,5.72
2019-05-29T07:44:24.689Z,3.20
2019-05-29T07:46:31.387Z,7.95
2019-05-29T07:48:38.496Z,3.95
2019-05-29T07:50:46.065Z,6.00
2019-05-29T07:52:52.663Z,3.45
2019-05-29T07:54:59.123Z,5.40
2019-05-29T07:57:05.656Z,4.70
2019-05-29T07:59:12.316Z,4.47
2019-05-29T08:01:18.845Z,7.60
2019-05-29T08:03:25.300Z,7.08
2019-05-29T08:05:31.845Z,6.35
2019-05-29T08:07:39.405Z,9.68
2019-05-29T08:09:47.742Z,4.72
2019-05-29T08:11:54.368Z,7.97
2019-05-29T08:14:00.840Z,5.97
2019-05-29T08:16:07.470Z,9.45
2019-05-29T08:18:13.934Z,7.00
2019-05-29T08:20:20.715Z,7.70
2019-05-29T08:22:34.301Z,6.25
2019-05-29T08:24:35.359Z,7.27
2019-05-29T08:26:42.930Z,6.45
2019-05-29T08:28:51.183Z,5.97
2019-05-29T08:30:57.896Z,6.13
2019-05-29T08:33:04.367Z,8.25
2019-05-29T08:35:10.980Z,8.23
2019-05-29T08:37:18.446Z,3.55
2019-05-29T08:39:35.466Z,6.00
2019-05-29T08:41:33.080Z,4.63
2019-05-29T08:43:39.556Z,4.30
2019-05-29T08:45:45.975Z,7.33
2019-05-29T08:47:52.636Z,5.65
2019-05-29T08:50:16.704Z,7.90
2019-05-29T08:52:11.863Z,5.73
2019-05-29T08:54:23.882Z,8.27
2019-05-29T08:56:23.707Z,4.47
2019-05-29T08:58:31.762Z,7.67
2019-05-29T09:00:38.181Z,5.05
2019-05-29T09:02:44.773Z,4.62
2019-05-29T09:04:53.034Z,4.85
2019-05-29T09:06:59.463Z,3.77
2019-05-29T09:09:08.269Z,3.45
2019-05-29T09:11:14.799Z,5.67
2019-05-29T09:13:21.238Z,6.55
2019-05-29T09:15:27.689Z,5.47
2019-05-29T09:17:34.714Z,7.65
2019-05-29T09:19:41.533Z,5.42
2019-05-29T09:21:48.005Z,6.03
2019-05-29T09:23:58.329Z,2.50
2019-05-29T09:26:14.062Z,3.37
2019-05-29T09:28:16.606Z,4.50
2019-05-29T09:30:24.143Z,3.95
2019-05-29T09:32:48.371Z,4.47
2019-05-29T09:34:38.734Z,1.97
2019-05-29T09:36:45.142Z,1.80
2019-05-29T09:38:51.882Z,3.33
2019-05-29T09:40:58.607Z,4.33
2019-05-29T09:43:05.241Z,4.67
2019-05-29T09:45:11.755Z,2.50
2019-05-29T09:47:19.032Z,5.58
2019-05-29T09:49:26.402Z,4.00
2019-05-29T09:51:32.918Z,4.22
2019-05-29T09:53:39.350Z,4.05
2019-05-29T09:55:45.802Z,3.52
2019-05-29T09:57:53.843Z,3.05
2019-05-29T10:00:02.227Z,2.63
2019-05-29T10:02:10.428Z,6.30
2019-05-29T10:04:16.895Z,3.98
2019-05-29T10:06:23.448Z,3.60
2019-05-29T10:08:30.036Z,6.87
2019-05-29T10:10:36.509Z,2.62
2019-05-29T10:12:42.989Z,4.30
2019-05-29T10:14:51.380Z,3.98
2019-05-29T10:16:59.215Z,5.97
2019-05-29T10:19:07.475Z,3.27
2019-05-29T10:21:14.136Z,2.35
2019-05-29T10:23:21.415Z,3.75
2019-05-29T10:25:27.902Z,2.65
2019-05-29T10:27:34.500Z,2.62
2019-05-29T10:29:40.902Z,3.20
2019-05-29T10:31:49.216Z,2.20
2019-05-29T10:33:55.459Z,1.77
2019-05-29T10:36:04.094Z,3.12
2019-05-29T10:38:10.174Z,4.20
2019-05-29T10:40:18.021Z,4.00
2019-05-29T10:42:24.558Z,3.65
2019-05-29T10:44:31.033Z,3.83
2019-05-29T10:46:37.433Z,2.33
2019-05-29T10:48:45.376Z,4.97
2019-05-29T10:50:53.770Z,3.83
2019-05-29T10:53:00.186Z,3.17
2019-05-29T10:55:08.203Z,3.22
2019-05-29T10:57:14.743Z,2.50
2019-05-29T10:59:21.280Z,2.83
2019-05-29T11:01:27.875Z,1.98
2019-05-29T11:03:34.399Z,3.52
2019-05-29T11:05:42.019Z,2.62
2019-05-29T11:07:49.681Z,4.45
2019-05-29T11:09:56.351Z,10.72
2019-05-29T11:12:02.947Z,3.17
2019-05-29T11:14:10.650Z,6.05
2019-05-29T11:16:17.147Z,3.37
2019-05-29T11:18:23.534Z,4.58
2019-05-29T11:20:30.309Z,6.45
2019-05-29T11:22:36.785Z,5.42
2019-05-29T11:24:43.335Z,11.05
2019-05-29T11:26:50.338Z,6.10
2019-05-29T11:28:57.087Z,2.25
2019-05-29T11:31:06.198Z,2.52
2019-05-29T11:33:11.769Z,2.10
2019-05-29T11:35:18.495Z,4.72
2019-05-29T11:37:25.129Z,3.15
2019-05-29T11:39:31.683Z,2.65
2019-05-29T11:41:38.330Z,3.17
2019-05-29T11:43:44.803Z,1.67
2019-05-29T11:45:51.401Z,5.85
2019-05-29T11:47:59.593Z,2.00
2019-05-29T11:50:19.014Z,1.80
2019-05-29T11:52:25.066Z,3.83
2019-05-29T11:54:29.574Z,4.05
2019-05-29T11:56:36.055Z,4.87
2019-05-29T11:58:42.694Z,5.12
2019-05-29T12:00:49.156Z,7.17
2019-05-29T12:02:55.984Z,5.53
2019-05-29T12:05:05.758Z,1.85
2019-05-29T12:07:12.231Z,5.85
2019-05-29T12:09:32.135Z,2.70
2019-05-29T12:11:26.866Z,3.52
2019-05-29T12:13:33.436Z,4.05
2019-05-29T12:15:39.982Z,4.08
2019-05-29T12:17:46.561Z,3.02
2019-05-29T12:19:54.128Z,4.03
2019-05-29T12:22:02.584Z,3.80
2019-05-29T12:24:09.085Z,2.37
2019-05-29T12:26:22.451Z,4.85
2019-05-29T12:28:23.862Z,6.03
2019-05-29T12:30:30.773Z,2.67
2019-05-29T12:32:37.253Z,4.58
2019-05-29T12:34:53.079Z,3.05
2019-05-29T12:36:53.246Z,5.42
2019-05-29T12:39:02.019Z,7.33
2019-05-29T12:41:08.865Z,4.45
2019-05-29T12:43:26.556Z,4.70
2019-05-29T12:45:23.751Z,4.97
2019-05-29T12:47:30.171Z,8.45
2019-05-29T12:49:36.691Z,4.45
2019-05-29T12:51:43.275Z,6.75
2019-05-29T12:53:49.664Z,32.88
2019-05-29T12:55:56.258Z,5.17
2019-05-29T12:58:02.773Z,2.72
2019-05-29T13:00:19.009Z,8.23
2019-05-29T13:02:25.455Z,3.35
2019-05-29T13:04:31.934Z,5.30
2019-05-29T13:06:38.406Z,8.10
2019-05-29T13:08:45.144Z,5.20
2019-05-29T13:10:51.540Z,4.00
2019-05-29T13:13:03.849Z,5.75
2019-05-29T13:15:13.422Z,3.15
2019-05-29T13:17:19.879Z,9.60
2019-05-29T13:19:26.454Z,8.10
2019-05-29T13:21:32.847Z,5.37
2019-05-29T13:23:45.021Z,3.35
2019-05-29T13:25:47.445Z,5.43
2019-05-29T13:27:57.270Z,7.28
2019-05-29T13:30:04.086Z,5.47
2019-05-29T13:32:10.402Z,6.65
2019-05-29T13:34:16.806Z,4.03
2019-05-29T13:36:23.207Z,6.55
2019-05-29T13:38:29.682Z,3.72
2019-05-29T13:40:36.078Z,4.58
2019-05-29T13:42:42.467Z,6.45
2019-05-29T13:44:48.935Z,4.42
2019-05-29T13:46:55.374Z,3.95
2019-05-29T13:49:02.853Z,4.95
2019-05-29T13:51:09.595Z,5.12
2019-05-29T13:53:15.988Z,2.65
2019-05-29T13:55:22.512Z,5.87
2019-05-29T13:57:28.953Z,8.83
2019-05-29T13:59:35.423Z,6.03
2019-05-29T14:01:48.261Z,3.50
2019-05-29T14:03:53.127Z,4.15
2019-05-29T14:06:00.794Z,8.33
2019-05-29T14:08:09.193Z,5.10
2019-05-29T14:10:17.255Z,6.45
2019-05-29T14:12:24.075Z,6.20
2019-05-29T14:14:30.839Z,5.03
2019-05-29T14:16:37.300Z,5.22
2019-05-29T14:18:43.757Z,5.40
2019-05-29T14:20:50.278Z,15.32
2019-05-29T14:22:56.831Z,3.75
2019-05-29T14:25:03.313Z,6.80
2019-05-29T14:27:09.835Z,5.35
2019-05-29T14:29:16.408Z,4.47
2019-05-29T14:31:22.839Z,4.67
2019-05-29T14:33:29.340Z,5.72
2019-05-29T14:35:35.794Z,4.95
2019-05-29T14:37:42.357Z,5.83
2019-05-29T14:39:48.786Z,7.55
2019-05-29T14:41:55.239Z,4.75
2019-05-29T14:44:01.798Z,2.27
2019-05-29T14:46:08.470Z,4.12
2019-05-29T14:48:15.093Z,3.47
2019-05-29T14:50:21.924Z,4.25
2019-05-29T14:52:28.394Z,3.83
2019-05-29T14:54:41.730Z,2.75
2019-05-29T14:56:43.492Z,6.12
2019-05-29T14:58:50.186Z,5.58
2019-05-29T15:00:56.720Z,6.47
2019-05-29T15:03:03.393Z,4.67
2019-05-29T15:05:12.192Z,11.30
2019-05-29T15:07:22.519Z,8.23
2019-05-29T15:09:27.018Z,5.28
2019-05-29T15:11:33.441Z,5.55
2019-05-29T15:13:40.476Z,4.85
2019-05-29T15:15:47.007Z,3.47
2019-05-29T15:17:53.597Z,5.40
2019-05-29T15:20:00.160Z,8.70
2019-05-29T15:22:09.204Z,5.33
2019-05-29T15:24:16.228Z,5.62
2019-05-29T15:26:23.303Z,6.65
2019-05-29T15:28:29.763Z,2.50
2019-05-29T15:30:36.205Z,5.97
2019-05-29T15:32:42.764Z,4.83
2019-05-29T15:34:49.424Z,6.03
2019-05-29T15:36:56.031Z,7.75
2019-05-29T15:39:02.637Z,3.70
2019-05-29T15:41:09.047Z,8.55
2019-05-29T15:43:16.956Z,9.43
2019-05-29T15:45:25.412Z,4.80
2019-05-29T15:47:31.957Z,4.53
2019-05-29T15:49:38.510Z,6.42
2019-05-29T15:51:44.937Z,9.00
2019-05-29T15:53:51.496Z,6.83
2019-05-29T15:55:57.894Z,6.80
2019-05-29T15:58:04.779Z,4.90
2019-05-29T16:00:15.477Z,5.67
2019-05-29T16:02:22.506Z,4.03
2019-05-29T16:04:28.915Z,4.92
2019-05-29T16:06:35.451Z,6.58
2019-05-29T16:08:42.293Z,5.72
2019-05-29T16:10:48.784Z,4.58
2019-05-29T16:12:55.309Z,3.87
2019-05-29T16:15:01.858Z,7.65
2019-05-29T16:17:08.980Z,4.28
2019-05-29T16:19:16.272Z,4.25
2019-05-29T16:21:23.196Z,6.25
2019-05-29T16:23:35.829Z,4.28
2019-05-29T16:25:40.661Z,4.22
2019-05-29T16:27:46.514Z,5.55
2019-05-29T16:29:53.190Z,8.25
2019-05-29T16:31:59.863Z,6.22
2019-05-29T16:34:06.583Z,6.53
2019-05-29T16:36:14.485Z,6.08
2019-05-29T16:38:21.839Z,6.23
2019-05-29T16:40:29.663Z,4.30
2019-05-29T16:42:36.217Z,4.58
2019-05-29T16:44:42.698Z,5.90
2019-05-29T16:46:49.187Z,5.60
2019-05-29T16:48:55.598Z,3.47
2019-05-29T16:51:02.168Z,6.95
2019-05-29T16:53:08.640Z,2.52
2019-05-29T16:55:16.983Z,9.13
2019-05-29T16:57:23.895Z,6.33
2019-05-29T16:59:30.294Z,7.83
2019-05-29T17:01:36.698Z,7.60
2019-05-29T17:03:43.176Z,10.32
2019-05-29T17:05:49.715Z,8.43
2019-05-29T17:07:56.200Z,11.80
2019-05-29T17:10:02.692Z,6.12
2019-05-29T17:12:09.297Z,4.55
2019-05-29T17:14:16.437Z,5.83
2019-05-29T17:16:24.816Z,3.93
2019-05-29T17:18:31.496Z,4.47
2019-05-29T17:20:46.851Z,4.75
2019-05-29T17:22:53.350Z,5.15
2019-05-29T17:24:59.769Z,3.25
2019-05-29T17:27:06.585Z,5.58
2019-05-29T17:29:14.733Z,9.43
2019-05-29T17:31:21.258Z,4.40
2019-05-29T17:33:27.719Z,5.10
2019-05-29T17:35:34.132Z,7.62
2019-05-29T17:37:40.674Z,9.05
2019-05-29T17:39:47.248Z,4.58
2019-05-29T17:41:53.824Z,6.97
2019-05-29T17:44:00.307Z,8.88
2019-05-29T17:46:07.004Z,8.60
2019-05-29T17:48:15.444Z,8.40
2019-05-29T17:50:24.592Z,8.18
2019-05-29T17:52:30.618Z,12.80
2019-05-29T17:54:37.380Z,8.75
2019-05-29T17:56:43.867Z,7.65
2019-05-29T17:58:50.328Z,7.10
2019-05-29T18:00:56.884Z,8.83
2019-05-29T18:03:03.411Z,9.38
2019-05-29T18:05:10.514Z,6.20
2019-05-29T18:07:16.973Z,9.10
2019-05-29T18:09:27.384Z,5.37
2019-05-29T18:11:33.031Z,7.28
2019-05-29T18:13:39.628Z,6.83
2019-05-29T18:15:46.200Z,6.12
2019-05-29T18:17:52.694Z,6.65
2019-05-29T18:19:59.144Z,6.55
2019-05-29T18:22:05.855Z,9.43
2019-05-29T18:24:12.259Z,8.63
2019-05-29T18:26:19.983Z,9.80
2019-05-29T18:28:26.643Z,5.40
2019-05-29T18:30:33.250Z,10.63
2019-05-29T18:32:39.868Z,6.75
2019-05-29T18:34:46.336Z,10.90
2019-05-29T18:36:53.912Z,8.38
2019-05-29T18:39:00.335Z,9.70
2019-05-29T18:41:07.125Z,8.93
2019-05-29T18:43:13.678Z,7.92
2019-05-29T18:45:24.503Z,13.75
2019-05-29T18:47:30.323Z,11.68
2019-05-29T18:49:36.876Z,8.95
2019-05-29T18:51:43.304Z,15.03
2019-05-29T18:53:49.780Z,10.48
2019-05-29T18:55:56.271Z,8.35
2019-05-29T18:58:02.942Z,16.97
2019-05-29T19:00:12.352Z,8.20
2019-05-29T19:02:19.032Z,10.55
2019-05-29T19:04:25.587Z,11.68
2019-05-29T19:06:31.950Z,9.58
2019-05-29T19:08:38.432Z,9.25
2019-05-29T19:10:46.624Z,9.43
2019-05-29T19:12:53.165Z,9.08
2019-05-29T19:14:59.698Z,9.10
2019-05-29T19:17:07.334Z,7.35
2019-05-29T19:19:13.856Z,7.37
2019-05-29T19:21:20.406Z,6.90
2019-05-29T19:23:26.880Z,9.35
2019-05-29T19:25:33.300Z,14.50
2019-05-29T19:27:42.130Z,7.80
2019-05-29T19:29:48.657Z,10.60
2019-05-29T19:31:55.106Z,9.35
2019-05-29T19:34:01.877Z,8.60
2019-05-29T19:36:08.582Z,11.75
2019-05-29T19:38:15.167Z,6.45
2019-05-29T19:40:21.801Z,5.03
2019-05-29T19:42:28.280Z,6.80
2019-05-29T19:44:34.878Z,9.05
2019-05-29T19:46:53.140Z,8.75
2019-05-29T19:48:51.078Z,8.65
2019-05-29T19:50:57.544Z,7.12
2019-05-29T19:53:04.085Z,10.50
2019-05-29T19:55:11.375Z,8.58
2019-05-29T19:57:17.936Z,11.38
2019-05-29T19:59:24.352Z,8.58
2019-05-29T20:01:36.166Z,12.03
2019-05-29T20:03:39.359Z,5.90
2019-05-29T20:05:45.770Z,5.08
2019-05-29T20:07:52.287Z,4.50
2019-05-29T20:09:58.728Z,7.42
2019-05-29T20:12:05.258Z,9.95
2019-05-29T20:14:11.848Z,7.80
2019-05-29T20:16:18.250Z,8.70
2019-05-29T20:18:24.647Z,6.85
2019-05-29T20:20:32.303Z,13.80
2019-05-29T20:22:39.205Z,4.50
2019-05-29T20:24:45.858Z,8.23
2019-05-29T20:26:52.348Z,6.28
2019-05-29T20:28:58.828Z,5.03
2019-05-29T20:31:05.522Z,5.53
2019-05-29T20:33:11.948Z,6.12
2019-05-29T20:35:18.750Z,7.55
2019-05-29T20:37:25.277Z,5.83
2019-05-29T20:39:32.979Z,4.45
2019-05-29T20:41:42.137Z,5.60
2019-05-29T20:43:48.288Z,4.67
2019-05-29T20:45:54.751Z,6.33
2019-05-29T20:48:01.227Z,5.10
2019-05-29T20:50:09.595Z,7.42
2019-05-29T20:52:16.068Z,7.47
2019-05-29T20:54:22.681Z,6.30
2019-05-29T20:56:29.265Z,5.80
2019-05-29T20:58:35.708Z,6.97
2019-05-29T21:00:42.396Z,9.88
2019-05-29T21:02:49.120Z,4.65
2019-05-29T21:04:57.726Z,4.35
2019-05-29T21:07:04.455Z,4.90
2019-05-29T21:09:11.075Z,9.95
2019-05-29T21:11:17.485Z,5.37
2019-05-29T21:13:23.945Z,4.90
2019-05-29T21:15:30.566Z,6.30
2019-05-29T21:17:37.886Z,9.08
2019-05-29T21:19:44.823Z,5.60
2019-05-29T21:21:51.284Z,3.58
2019-05-29T21:23:57.743Z,5.28
2019-05-29T21:26:04.492Z,6.28
2019-05-29T21:28:10.905Z,4.60
2019-05-29T21:30:23.687Z,6.65
2019-05-29T21:32:30.150Z,5.12
2019-05-29T21:34:37.648Z,5.65
2019-05-29T21:36:44.345Z,3.67
2019-05-29T21:38:50.805Z,6.00
2019-05-29T21:40:57.405Z,4.33
2019-05-29T21:43:03.884Z,5.20
2019-05-29T21:45:11.135Z,6.67
2019-05-29T21:47:18.765Z,10.32
2019-05-29T21:49:26.732Z,3.62
2019-05-29T21:51:34.180Z,6.10
2019-05-29T21:53:41.816Z,6.97
2019-05-29T21:55:48.422Z,5.35
2019-05-29T21:57:55.423Z,3.47
2019-05-29T22:00:07.831Z,2.98
2019-05-29T22:02:15.933Z,4.40
2019-05-29T22:04:22.400Z,7.45
2019-05-29T22:06:29.175Z,6.03
2019-05-29T22:08:35.830Z,4.83
2019-05-29T22:10:42.881Z,6.12
2019-05-29T22:12:50.312Z,5.90
2019-05-29T22:14:57.020Z,6.92
2019-05-29T22:17:03.645Z,2.72
2019-05-29T22:19:10.237Z,6.03
2019-05-29T22:21:16.755Z,7.87
2019-05-29T22:23:23.224Z,7.95
2019-05-29T22:25:33.591Z,4.92
2019-05-29T22:27:38.923Z,8.98
2019-05-29T22:29:45.303Z,5.80
2019-05-29T22:31:51.767Z,5.97
2019-05-29T22:33:59.484Z,4.72
2019-05-29T22:36:06.510Z,6.20
2019-05-29T22:38:13.027Z,7.87
2019-05-29T22:40:19.633Z,8.55
2019-05-29T22:42:26.179Z,5.37
2019-05-29T22:44:32.669Z,7.28
2019-05-29T22:46:39.144Z,4.25
2019-05-29T22:48:45.675Z,5.22
2019-05-29T22:50:52.218Z,7.70
2019-05-29T22:52:59.868Z,8.80
2019-05-29T22:55:09.446Z,6.95
2019-05-29T22:57:15.980Z,9.88
2019-05-29T22:59:31.371Z,7.03
2019-05-29T23:01:30.691Z,6.08
2019-05-29T23:03:37.300Z,4.67
2019-05-29T23:05:43.843Z,6.90
2019-05-29T23:07:50.384Z,8.10
2019-05-29T23:09:56.767Z,5.83
2019-05-29T23:12:03.183Z,4.05
2019-05-29T23:14:09.752Z,2.90
2019-05-29T23:16:16.318Z,1.87
2019-05-29T23:18:22.776Z,6.12
2019-05-29T23:20:29.170Z,4.42
2019-05-29T23:22:35.689Z,9.20
2019-05-29T23:24:42.299Z,3.35
2019-05-29T23:26:48.824Z,5.83
2019-05-29T23:28:55.389Z,4.37
2019-05-29T23:31:02.978Z,4.62
2019-05-29T23:33:09.489Z,5.12
2019-05-29T23:35:16.324Z,7.55
2019-05-29T23:37:23.036Z,5.15
2019-05-29T23:39:29.567Z,5.35
2019-05-29T23:41:36.021Z,3.12
2019-05-29T23:43:42.526Z,8.03
2019-05-29T23:45:48.988Z,8.15
2019-05-29T23:47:55.576Z,5.42
2019-05-29T23:50:03.187Z,4.67
2019-05-29T23:52:10.335Z,5.43
2019-05-29T23:54:16.802Z,3.62
2019-05-29T23:56:23.276Z,5.30
2019-05-29T23:58:29.935Z,5.97
